Academy, SD

11:41 AM CDT on April 18, 2015 (GMT -0500)
IEM | | Change Station
CLOSE
Current Station
Personal Weather Station
Location: Platte, SD
Elevation: 1601 ft
Nearby Weather Stations

Elev 1601 ft 43.38 °N, 98.85 °W | Updated 24 minutes ago

Rain
Rain
46 °F
Feels Like 46 °F
N
0
Wind Variable Wind from North
Gusts 0.0 mph

Today
High -- | Low -- °F
--% Chance of Precip.
Yesterday
High -- | Low -- °F
Precip. -- in
6:48 AM 8:21 PM
Waning Crescent, 0% visible
Pressure 29.95 in
Visibility 10.0 miles
Clouds Scattered Clouds 3600 ft
Mostly Cloudy 7000 ft
Overcast 8500 ft
Windchill 46 °F
Dew Point 46 °F
Humidity 100%
Rainfall in
Snow Depth Not available.
UV 2 out of 12
Pollen 5.90 out of 12
Air Quality Not available.
Flu Activity Sporadic
METAR K9V9 181615Z AUTO 11008KT 10SM RA SCT036 BKN070 OVC085 12/04 A2995 RMK AO2 T01200041

More Conditions Fewer Conditions

Pressure 29.95 in
Visibility 10.0 miles
Clouds Scattered Clouds 3600 ft
Mostly Cloudy 7000 ft
Overcast 8500 ft
Windchill 46 °F
Dew Point 46 °F
Humidity 100%
Rainfall in
Snow Depth Not available.
UV 2 out of 12
Pollen 5.90 out of 12
Air Quality Not available.
Flu Activity Sporadic
METAR K9V9 181615Z AUTO 11008KT 10SM RA SCT036 BKN070 OVC085 12/04 A2995 RMK AO2 T01200041

More Conditions Fewer Conditions

10-Day Weather Forecast

Almanac

Astronomy

Apr. 18, 2015 Rise Set
Actual Time
Civil Twilight
Nautical Twilight
Astronomical Twilight
Moon
Length of Visible Light
Length of Day
Tomorrow will be .
, % of the Moon is Illuminated

Today's Extremes

State Highs State Lows

Community

WunderPhotos

Upload Photos

1,814,457 photos uploaded!

WunderBlogs® & News

Nearby

Air Quality

  Air Quality AQ Index Pollutant
Not available.

Snow Depth

Station Depth Elevation

Earthquake Activity

City Distance Mag. Time & Date
Minimum magnitude displayed is 2.5.

Coastal Water Temperatures

Place Temperature

Stations

Nearby Weather Stations

Station Location Temp. Windchill Dew Point Humidity Wind Precip. Elev Updated Type